Time;durP1;ratioP1;P1;durP2;ratioP2;P2;SDS_P1;SDS_P2;PMS_P1;PMS_P2;Temp;Humidity;BMP_temperature;BMP_pressure;BME280_temperature;BME280_humidity;BME280_pressure;Samples;Min_cycle;Max_cycle;Signal;HPM_P1;HPM_P2
2023/01/19 00:01:30;;;;;;;;;;;-0.30;99.90;;;;;;5058066;28;20373;-78
2023/01/19 00:03:56;;;;;;;;;;;-0.30;99.90;;;;;;5039522;28;19920;-78
2023/01/19 00:06:22;;;;;;;;;;;-0.30;99.90;;;;;;5039275;28;19991;-78
2023/01/19 00:08:49;;;;;;;;;;;-0.30;99.90;;;;;;5039111;28;19955;-76
2023/01/19 00:11:16;;;;;;;;;;;-0.30;99.90;;;;;;5057912;28;19963;-76
2023/01/19 00:13:48;;;;;;;;;;;-0.30;99.90;;;;;;5041062;28;19908;-75
2023/01/19 00:16:16;;;;;;;;;;;-0.20;99.90;;;;;;5040561;28;19909;-75
2023/01/19 00:18:42;;;;;;;;;;;-0.20;99.90;;;;;;5040308;28;20007;-75
2023/01/19 00:21:07;;;;;;;;;;;-0.20;99.90;;;;;;5058165;28;20409;-75
2023/01/19 00:23:33;;;;;;;;;;;-0.20;99.90;;;;;;5040814;28;19908;-76
2023/01/19 00:25:59;;;;;;;;;;;-0.20;99.90;;;;;;5058982;28;20284;-76
2023/01/19 00:28:24;;;;;;;;;;;-0.20;99.90;;;;;;5041425;28;19956;-76
2023/01/19 00:30:50;;;;;;;;;;;-0.20;99.90;;;;;;5059656;28;19966;-76
2023/01/19 00:33:16;;;;;;;;;;;-0.20;99.90;;;;;;5062926;28;19917;-76
2023/01/19 00:35:42;;;;;;;;;;;-0.30;99.90;;;;;;5065641;28;19930;-76
2023/01/19 00:38:08;;;;;;;;;;;-0.30;99.90;;;;;;5066539;28;20011;-76
2023/01/19 00:40:34;;;;;;;;;;;-0.30;99.90;;;;;;5066063;28;19998;-76
2023/01/19 00:42:59;;;;;;;;;;;-0.20;99.90;;;;;;5065613;28;19921;-76
2023/01/19 00:45:25;;;;;;;;;;;-0.30;99.90;;;;;;5066174;28;19908;-76
2023/01/19 00:47:55;;;;;;;;;;;-0.30;99.90;;;;;;5047796;28;19916;-76
2023/01/19 00:50:22;;;;;;;;;;;-0.30;99.90;;;;;;5048292;28;19919;-76
2023/01/19 00:52:48;;;;;;;;;;;-0.30;99.90;;;;;;5047690;28;20341;-76
2023/01/19 00:55:14;;;;;;;;;;;-0.30;99.90;;;;;;5065222;28;19908;-75
2023/01/19 00:57:40;;;;;;;;;;;-0.30;99.90;;;;;;5065717;28;19924;-76
2023/01/19 01:00:08;;;;;;;;;;;-0.30;99.90;;;;;;5065609;28;19944;-76
2023/01/19 01:02:33;;;;;;;;;;;-0.30;99.90;;;;;;5066551;28;19916;-76
2023/01/19 01:05:01;;;;;;;;;;;-0.30;99.90;;;;;;5049365;28;19909;-76
2023/01/19 01:07:27;;;;;;;;;;;-0.30;99.90;;;;;;5048469;28;20443;-76
2023/01/19 01:09:53;;;;;;;;;;;-0.30;99.90;;;;;;5066118;28;20331;-76
2023/01/19 01:12:19;;;;;;;;;;;-0.40;99.90;;;;;;5047081;28;19909;-76
2023/01/19 01:14:44;;;;;;;;;;;-0.40;99.90;;;;;;5048035;28;19909;-76
2023/01/19 01:17:13;;;;;;;;;;;-0.40;99.90;;;;;;5049153;28;19917;-76
2023/01/19 01:19:41;;;;;;;;;;;-0.50;99.90;;;;;;5065575;28;19992;-76
2023/01/19 01:22:09;;;;;;;;;;;-0.50;99.90;;;;;;5066244;28;19915;-76
2023/01/19 01:24:35;;;;;;;;;;;-0.50;99.90;;;;;;5047564;28;19956;-79
2023/01/19 01:27:01;;;;;;;;;;;-0.40;99.90;;;;;;5062564;28;20372;-79
2023/01/19 01:29:26;;;;;;;;;;;-0.50;99.90;;;;;;5062674;28;19944;-79
2023/01/19 01:31:52;;;;;;;;;;;-0.40;99.90;;;;;;5028006;28;20015;-79
2023/01/19 01:34:17;;;;;;;;;;;-0.50;99.90;;;;;;5062807;28;19955;-79
2023/01/19 01:36:43;;;;;;;;;;;-0.50;99.90;;;;;;5062890;28;19920;-79
2023/01/19 01:39:09;;;;;;;;;;;-0.50;99.90;;;;;;5044996;28;19913;-78
2023/01/19 01:41:34;;;;;;;;;;;-0.50;99.90;;;;;;5044753;28;20273;-79
2023/01/19 01:44:01;;;;;;;;;;;-0.50;99.90;;;;;;5061447;28;19912;-79
2023/01/19 01:46:29;;;;;;;;;;;-0.50;99.90;;;;;;5041652;28;20426;-79
2023/01/19 01:48:59;;;;;;;;;;;-0.50;99.90;;;;;;5059653;28;19913;-78
2023/01/19 01:51:28;;;;;;;;;;;-0.50;99.90;;;;;;5058320;28;19999;-79
2023/01/19 01:54:05;;;;;;;;;;;-0.50;99.90;;;;;;5040874;28;19915;-79
2023/01/19 01:56:33;;;;;;;;;;;-0.50;99.90;;;;;;5057807;28;19919;-78
2023/01/19 01:58:59;;;;;;;;;;;-0.60;99.90;;;;;;5057728;28;19908;-78
2023/01/19 02:04:09;;;;;;;;;;;-0.60;99.90;;;;;;5056834;28;19919;-80
2023/01/19 02:14:48;;;;;;;;;;;-0.60;99.90;;;;;;5050377;28;20323;-77
2023/01/19 02:17:13;;;;;;;;;;;-0.60;99.90;;;;;;5038873;28;19912;-79
2023/01/19 02:19:41;;;;;;;;;;;-0.60;99.90;;;;;;5053666;28;20370;-77
2023/01/19 02:22:10;;;;;;;;;;;-0.60;99.90;;;;;;5054369;28;19954;-79
2023/01/19 02:24:36;;;;;;;;;;;-0.60;99.90;;;;;;5057449;28;20369;-78
2023/01/19 02:27:02;;;;;;;;;;;-0.60;99.90;;;;;;5058842;28;19944;-80
2023/01/19 02:29:28;;;;;;;;;;;-0.60;99.90;;;;;;5068098;28;20006;-79
2023/01/19 02:31:55;;;;;;;;;;;-0.60;99.90;;;;;;5060968;28;19908;-79
2023/01/19 02:34:21;;;;;;;;;;;-0.70;99.90;;;;;;5058326;28;19924;-79
2023/01/19 02:36:57;;;;;;;;;;;-0.60;99.90;;;;;;5056950;28;19999;-77
2023/01/19 02:39:47;;;;;;;;;;;-0.60;99.90;;;;;;5057818;28;20347;-79
2023/01/19 02:42:24;;;;;;;;;;;-0.60;99.90;;;;;;5029094;28;19915;-79
2023/01/19 02:44:51;;;;;;;;;;;-0.70;99.90;;;;;;5039148;28;19962;-79
2023/01/19 02:47:17;;;;;;;;;;;-0.60;99.90;;;;;;5056867;28;19962;-82
2023/01/19 02:49:42;;;;;;;;;;;-0.70;99.90;;;;;;5057150;28;19916;-78
2023/01/19 02:52:14;;;;;;;;;;;-0.70;99.90;;;;;;5058191;28;20004;-80
2023/01/19 02:54:40;;;;;;;;;;;-0.70;99.90;;;;;;5057095;28;19954;-77
2023/01/19 02:57:12;;;;;;;;;;;-0.70;99.90;;;;;;5056343;28;19917;-78
2023/01/19 02:59:37;;;;;;;;;;;-0.60;99.90;;;;;;5057117;28;19916;-80
2023/01/19 03:02:09;;;;;;;;;;;-0.60;99.90;;;;;;5056448;28;20288;-78
2023/01/19 03:04:53;;;;;;;;;;;-0.70;99.90;;;;;;5056844;28;19909;-78
2023/01/19 03:07:34;;;;;;;;;;;-0.60;99.90;;;;;;5057133;28;19955;-78
2023/01/19 03:10:06;;;;;;;;;;;-0.70;99.90;;;;;;5056031;28;19920;-78
2023/01/19 03:12:32;;;;;;;;;;;-0.70;99.90;;;;;;5039061;28;19944;-80
2023/01/19 03:15:00;;;;;;;;;;;-0.70;99.90;;;;;;5057279;28;19916;-77
2023/01/19 03:17:25;;;;;;;;;;;-0.70;99.90;;;;;;5057357;28;19934;-80
2023/01/19 03:19:52;;;;;;;;;;;-0.70;99.90;;;;;;5038591;28;19974;-80
2023/01/19 03:22:21;;;;;;;;;;;-0.70;99.90;;;;;;5057324;28;19967;-80
2023/01/19 03:24:46;;;;;;;;;;;-0.70;99.90;;;;;;5057528;28;19909;-80
2023/01/19 03:27:23;;;;;;;;;;;-0.60;99.90;;;;;;5057635;28;20281;-80
2023/01/19 03:30:08;;;;;;;;;;;-0.60;99.90;;;;;;5056977;28;20422;-79
2023/01/19 03:32:36;;;;;;;;;;;-0.60;99.90;;;;;;5037847;28;20003;-80
2023/01/19 03:35:04;;;;;;;;;;;-0.70;99.90;;;;;;5057476;28;19962;-79
2023/01/19 03:37:30;;;;;;;;;;;-0.70;99.90;;;;;;5057351;28;20315;-79
2023/01/19 03:39:56;;;;;;;;;;;-0.70;99.90;;;;;;5038876;28;19913;-79
2023/01/19 03:42:23;;;;;;;;;;;-0.70;99.90;;;;;;5057270;28;19920;-79
2023/01/19 03:44:51;;;;;;;;;;;-0.80;99.90;;;;;;5056593;28;19909;-79
2023/01/19 03:47:18;;;;;;;;;;;-0.80;99.90;;;;;;5057081;28;19909;-79
2023/01/19 03:49:45;;;;;;;;;;;-0.90;99.90;;;;;;5056800;28;19917;-79
2023/01/19 03:52:11;;;;;;;;;;;-0.90;99.90;;;;;;5056778;28;19946;-79
2023/01/19 03:54:37;;;;;;;;;;;-0.80;99.90;;;;;;5057414;28;20284;-79
2023/01/19 03:57:03;;;;;;;;;;;-0.80;99.90;;;;;;5039227;28;20015;-79
2023/01/19 03:59:28;;;;;;;;;;;-0.80;99.90;;;;;;5038611;28;19913;-79
2023/01/19 04:01:54;;;;;;;;;;;-0.80;99.90;;;;;;5057008;28;19924;-79
2023/01/19 04:04:19;;;;;;;;;;;-0.80;99.90;;;;;;5039128;28;19951;-79
2023/01/19 04:06:45;;;;;;;;;;;-0.80;99.90;;;;;;5038954;28;19912;-79
2023/01/19 04:09:10;;;;;;;;;;;-0.80;99.90;;;;;;5056516;28;19917;-79
2023/01/19 04:11:36;;;;;;;;;;;-0.80;99.90;;;;;;5056321;28;20386;-79
2023/01/19 04:14:02;;;;;;;;;;;-0.80;99.90;;;;;;5038261;28;19938;-79
2023/01/19 04:16:27;;;;;;;;;;;-0.80;99.90;;;;;;5055360;28;19913;-79
2023/01/19 04:18:53;;;;;;;;;;;-0.90;99.90;;;;;;5056847;28;19932;-79
2023/01/19 04:21:19;;;;;;;;;;;-0.90;99.90;;;;;;5038271;28;19962;-78
2023/01/19 04:23:45;;;;;;;;;;;-0.90;99.90;;;;;;5057389;28;19999;-80
2023/01/19 04:26:10;;;;;;;;;;;-1.00;99.90;;;;;;5056433;28;20297;-79
2023/01/19 04:28:36;;;;;;;;;;;-1.00;99.90;;;;;;5058157;28;19923;-79
2023/01/19 04:31:03;;;;;;;;;;;-1.00;99.90;;;;;;5044183;28;19912;-79
2023/01/19 04:33:28;;;;;;;;;;;-1.00;99.90;;;;;;5061893;28;19972;-79
2023/01/19 04:35:54;;;;;;;;;;;-1.00;99.90;;;;;;5061724;28;19913;-79
2023/01/19 04:38:21;;;;;;;;;;;-1.00;99.90;;;;;;5060691;28;19913;-79
2023/01/19 04:40:51;;;;;;;;;;;-0.90;99.90;;;;;;5061213;28;19963;-79
2023/01/19 04:43:18;;;;;;;;;;;-0.90;99.90;;;;;;5060382;28;19909;-79
2023/01/19 04:45:44;;;;;;;;;;;-0.90;99.90;;;;;;5067168;28;19909;-79
2023/01/19 04:48:10;;;;;;;;;;;-0.90;99.90;;;;;;5061472;28;19932;-80
2023/01/19 04:50:36;;;;;;;;;;;-0.90;99.90;;;;;;5057341;28;19920;-80
2023/01/19 04:53:02;;;;;;;;;;;-0.90;99.90;;;;;;5057419;28;20371;-80
2023/01/19 04:55:27;;;;;;;;;;;-1.00;99.90;;;;;;5057602;28;19917;-80
2023/01/19 04:57:53;;;;;;;;;;;-1.00;99.90;;;;;;5056717;28;19952;-80
2023/01/19 05:00:19;;;;;;;;;;;-1.00;99.90;;;;;;5054869;28;20003;-80
2023/01/19 05:02:45;;;;;;;;;;;-1.00;99.90;;;;;;5056385;28;19909;-80
2023/01/19 05:05:13;;;;;;;;;;;-1.10;99.90;;;;;;5055370;28;20469;-80
2023/01/19 05:07:38;;;;;;;;;;;-1.10;99.90;;;;;;5056528;28;19909;-80
2023/01/19 05:10:05;;;;;;;;;;;-1.10;99.90;;;;;;5055668;28;20258;-79
2023/01/19 05:12:31;;;;;;;;;;;-1.10;99.90;;;;;;5055858;28;19912;-79
2023/01/19 05:14:56;;;;;;;;;;;-1.10;99.90;;;;;;5055788;28;19962;-79
2023/01/19 05:17:22;;;;;;;;;;;-1.00;99.90;;;;;;5056139;28;19913;-79
2023/01/19 05:19:47;;;;;;;;;;;-1.00;99.90;;;;;;5057339;28;19913;-80
2023/01/19 05:22:14;;;;;;;;;;;-1.00;99.90;;;;;;5059649;28;19909;-79
2023/01/19 05:24:39;;;;;;;;;;;-1.00;99.90;;;;;;5059861;28;20325;-79
2023/01/19 05:27:05;;;;;;;;;;;-1.00;99.90;;;;;;5060587;28;19935;-79
2023/01/19 05:29:31;;;;;;;;;;;-1.00;99.90;;;;;;5059814;28;20022;-79
2023/01/19 05:31:57;;;;;;;;;;;-1.00;99.90;;;;;;5059633;28;19913;-79
2023/01/19 05:34:22;;;;;;;;;;;-1.00;99.90;;;;;;5060007;28;20024;-79
2023/01/19 05:36:48;;;;;;;;;;;-1.00;99.90;;;;;;5041591;28;20376;-79
2023/01/19 05:39:14;;;;;;;;;;;-1.00;99.90;;;;;;5059551;28;19917;-79
2023/01/19 05:41:40;;;;;;;;;;;-1.00;99.90;;;;;;5059143;28;20365;-80
2023/01/19 05:44:06;;;;;;;;;;;-1.00;99.90;;;;;;5059695;28;19913;-79
2023/01/19 05:46:33;;;;;;;;;;;-1.00;99.90;;;;;;5060100;28;20323;-79
2023/01/19 05:49:00;;;;;;;;;;;-1.10;99.90;;;;;;5058779;28;19939;-79
2023/01/19 05:51:26;;;;;;;;;;;-1.10;99.90;;;;;;5059198;28;19913;-80
2023/01/19 05:53:51;;;;;;;;;;;-1.20;99.90;;;;;;5040302;28;19913;-78
2023/01/19 05:56:17;;;;;;;;;;;-1.20;99.90;;;;;;5057429;28;19913;-79
2023/01/19 05:58:42;;;;;;;;;;;-1.30;99.90;;;;;;5058155;28;19952;-79
2023/01/19 06:01:08;;;;;;;;;;;-1.30;99.90;;;;;;5041337;28;20377;-81
2023/01/19 06:03:35;;;;;;;;;;;-1.30;99.90;;;;;;5058612;28;19962;-79
2023/01/19 06:06:01;;;;;;;;;;;-1.20;99.90;;;;;;5058622;28;19979;-80
2023/01/19 06:08:26;;;;;;;;;;;-1.20;99.90;;;;;;5058867;28;19952;-80
2023/01/19 06:10:52;;;;;;;;;;;-1.20;99.90;;;;;;5058645;28;19991;-80
2023/01/19 06:13:18;;;;;;;;;;;-1.20;99.90;;;;;;5040817;28;19909;-79
2023/01/19 06:15:44;;;;;;;;;;;-1.10;99.90;;;;;;5058737;28;19962;-79
2023/01/19 06:18:10;;;;;;;;;;;-1.10;99.90;;;;;;5041122;28;19909;-79
2023/01/19 06:20:35;;;;;;;;;;;-1.00;99.90;;;;;;5059380;28;19917;-79
2023/01/19 06:23:01;;;;;;;;;;;-1.00;99.90;;;;;;5059169;28;19913;-79
2023/01/19 06:25:27;;;;;;;;;;;-1.00;99.90;;;;;;5040940;28;19938;-79
2023/01/19 06:27:52;;;;;;;;;;;-1.00;99.90;;;;;;5058706;28;19959;-81
2023/01/19 06:30:18;;;;;;;;;;;-1.00;99.90;;;;;;5057283;28;19944;-82
2023/01/19 06:32:44;;;;;;;;;;;-0.90;99.90;;;;;;5057859;28;19909;-80
2023/01/19 06:35:10;;;;;;;;;;;-0.90;99.90;;;;;;5039903;28;20373;-81
2023/01/19 06:37:35;;;;;;;;;;;-0.90;99.90;;;;;;5057828;28;19909;-79
2023/01/19 06:40:01;;;;;;;;;;;-0.90;99.90;;;;;;5058528;28;19916;-79
2023/01/19 06:42:26;;;;;;;;;;;-0.90;99.90;;;;;;5040001;28;20016;-80
2023/01/19 06:44:52;;;;;;;;;;;-0.90;99.90;;;;;;5056344;28;20412;-79
2023/01/19 06:47:18;;;;;;;;;;;-1.00;99.90;;;;;;5057126;28;19912;-79
2023/01/19 06:49:43;;;;;;;;;;;-1.00;99.90;;;;;;5056095;28;19917;-77
2023/01/19 06:52:10;;;;;;;;;;;-1.00;99.90;;;;;;5056538;28;20257;-78
2023/01/19 06:54:36;;;;;;;;;;;-1.00;99.90;;;;;;5057444;28;19908;-80
2023/01/19 06:57:02;;;;;;;;;;;-1.00;99.90;;;;;;5057167;28;20280;-78
2023/01/19 06:59:27;;;;;;;;;;;-1.00;99.90;;;;;;5057070;28;19913;-78
2023/01/19 07:01:54;;;;;;;;;;;-1.00;99.90;;;;;;5069549;28;19921;-79
2023/01/19 07:04:20;;;;;;;;;;;-1.00;99.90;;;;;;5064863;28;19917;-80
2023/01/19 07:06:45;;;;;;;;;;;-1.00;99.90;;;;;;5059046;28;19919;-79
2023/01/19 07:09:12;;;;;;;;;;;-1.00;99.90;;;;;;5058958;28;20403;-79
2023/01/19 07:11:38;;;;;;;;;;;-1.00;99.90;;;;;;5058623;28;20008;-79
2023/01/19 07:14:03;;;;;;;;;;;-1.00;99.90;;;;;;5058424;28;19944;-79
2023/01/19 07:16:29;;;;;;;;;;;-1.00;99.90;;;;;;5040425;28;19940;-79
2023/01/19 07:18:54;;;;;;;;;;;-1.00;99.90;;;;;;5057938;28;20413;-79
2023/01/19 07:21:20;;;;;;;;;;;-1.00;99.90;;;;;;5057964;28;19912;-79
2023/01/19 07:23:50;;;;;;;;;;;-1.00;99.90;;;;;;5058038;28;19942;-79
2023/01/19 07:26:19;;;;;;;;;;;-1.10;99.90;;;;;;5057742;28;20000;-79
2023/01/19 07:28:46;;;;;;;;;;;-1.10;99.90;;;;;;5057298;28;19917;-79
2023/01/19 07:31:12;;;;;;;;;;;-1.10;99.90;;;;;;5057442;28;20012;-79
2023/01/19 07:33:37;;;;;;;;;;;-1.10;99.90;;;;;;5057161;28;19959;-79
2023/01/19 07:36:03;;;;;;;;;;;-1.10;99.90;;;;;;5039818;28;19919;-79
2023/01/19 07:38:28;;;;;;;;;;;-1.10;99.90;;;;;;5058059;28;19913;-80
2023/01/19 07:41:01;;;;;;;;;;;-1.10;99.90;;;;;;5057892;28;20284;-79
2023/01/19 07:43:26;;;;;;;;;;;-1.10;99.90;;;;;;5056757;28;19913;-79
2023/01/19 07:45:55;;;;;;;;;;;-1.10;99.90;;;;;;5057588;28;20253;-79
2023/01/19 07:48:20;;;;;;;;;;;-1.10;99.90;;;;;;5057155;28;19909;-79
2023/01/19 07:50:46;;;;;;;;;;;-1.10;99.90;;;;;;5059317;28;19928;-80
2023/01/19 07:53:11;;;;;;;;;;;-1.10;99.90;;;;;;5041935;28;19909;-79
2023/01/19 07:55:37;;;;;;;;;;;-1.10;99.90;;;;;;5043540;28;19913;-79
2023/01/19 07:58:06;;;;;;;;;;;-1.00;99.90;;;;;;5059783;28;20369;-79
2023/01/19 08:00:31;;;;;;;;;;;-1.10;99.90;;;;;;5041679;28;19925;-79
2023/01/19 08:02:58;;;;;;;;;;;-1.00;99.90;;;;;;5023007;28;19963;-79
2023/01/19 08:05:24;;;;;;;;;;;-1.00;99.90;;;;;;5058321;28;19979;-79
2023/01/19 08:07:49;;;;;;;;;;;-1.00;99.90;;;;;;5059721;28;20377;-79
2023/01/19 08:10:15;;;;;;;;;;;-1.00;99.90;;;;;;5061011;28;19966;-79
2023/01/19 08:12:41;;;;;;;;;;;-1.00;99.90;;;;;;5059605;28;20107;-79
2023/01/19 08:15:07;;;;;;;;;;;-1.00;99.90;;;;;;5059019;28;19916;-79
2023/01/19 08:17:33;;;;;;;;;;;-1.00;99.90;;;;;;5057382;28;19919;-79
2023/01/19 08:19:58;;;;;;;;;;;-1.00;99.90;;;;;;5056534;28;20307;-79
2023/01/19 08:22:24;;;;;;;;;;;-1.00;99.90;;;;;;5055827;28;19912;-79
2023/01/19 08:24:50;;;;;;;;;;;-1.00;99.90;;;;;;5055686;28;19920;-79
2023/01/19 08:27:16;;;;;;;;;;;-1.00;99.90;;;;;;5037741;28;19996;-79
2023/01/19 08:29:42;;;;;;;;;;;-1.00;99.90;;;;;;5055164;28;20407;-79
2023/01/19 08:32:07;;;;;;;;;;;-1.00;99.90;;;;;;5037500;28;19920;-79
2023/01/19 08:34:33;;;;;;;;;;;-1.10;99.90;;;;;;5055462;28;19913;-78
2023/01/19 08:36:58;;;;;;;;;;;-1.20;99.90;;;;;;5055694;28;19939;-79
2023/01/19 08:39:24;;;;;;;;;;;-1.10;99.90;;;;;;5055345;28;20373;-79
2023/01/19 08:41:51;;;;;;;;;;;-1.10;99.90;;;;;;5055300;28;19908;-79
2023/01/19 08:44:17;;;;;;;;;;;-1.10;99.90;;;;;;5055321;28;19916;-79
2023/01/19 08:46:42;;;;;;;;;;;-1.10;99.90;;;;;;5055742;28;19909;-79
2023/01/19 08:49:08;;;;;;;;;;;-1.00;99.90;;;;;;5055622;28;19962;-79
2023/01/19 08:51:33;;;;;;;;;;;-1.00;99.90;;;;;;5055234;28;19908;-79
2023/01/19 08:53:59;;;;;;;;;;;-1.10;99.90;;;;;;5056448;28;19909;-79
2023/01/19 08:56:25;;;;;;;;;;;-1.20;99.90;;;;;;5059717;28;19908;-79
2023/01/19 08:58:50;;;;;;;;;;;-1.10;99.90;;;;;;5041480;28;19956;-79
2023/01/19 09:01:17;;;;;;;;;;;-1.10;99.90;;;;;;5059288;28;19921;-79
2023/01/19 09:03:43;;;;;;;;;;;-1.10;99.90;;;;;;5059302;28;19993;-79
2023/01/19 09:06:12;;;;;;;;;;;-1.10;99.90;;;;;;5058719;28;19913;-79
2023/01/19 09:08:37;;;;;;;;;;;-1.10;99.90;;;;;;5058385;28;19948;-79
2023/01/19 09:11:04;;;;;;;;;;;-1.00;99.90;;;;;;5058764;28;19913;-79
2023/01/19 09:13:29;;;;;;;;;;;-0.90;99.90;;;;;;5040279;28;20007;-79
2023/01/19 09:15:55;;;;;;;;;;;-0.90;99.90;;;;;;5062476;28;19944;-79
2023/01/19 09:18:21;;;;;;;;;;;-0.80;99.90;;;;;;5078881;28;19904;-79
2023/01/19 09:20:47;;;;;;;;;;;-0.80;99.90;;;;;;5061224;28;19909;-79
2023/01/19 09:23:14;;;;;;;;;;;-0.70;99.90;;;;;;5042953;28;20003;-79
2023/01/19 09:25:40;;;;;;;;;;;-0.70;99.90;;;;;;5040820;28;20376;-79
2023/01/19 09:28:08;;;;;;;;;;;-0.60;99.90;;;;;;5058507;28;19967;-79
2023/01/19 09:30:36;;;;;;;;;;;-0.60;99.90;;;;;;5058311;28;19913;-79
2023/01/19 09:33:06;;;;;;;;;;;-0.70;99.90;;;;;;5058494;28;19928;-79
2023/01/19 09:35:32;;;;;;;;;;;-0.70;99.90;;;;;;5039895;28;19920;-79
2023/01/19 09:37:57;;;;;;;;;;;-0.70;99.90;;;;;;5058247;28;19913;-79
2023/01/19 09:40:23;;;;;;;;;;;-0.80;99.90;;;;;;5057899;28;19909;-79
2023/01/19 09:43:09;;;;;;;;;;;-0.80;99.90;;;;;;5058044;28;19913;-79
2023/01/19 09:45:37;;;;;;;;;;;-0.80;99.90;;;;;;5043590;28;19948;-79
2023/01/19 09:48:15;;;;;;;;;;;-0.80;99.90;;;;;;5057568;28;19999;-79
2023/01/19 09:50:46;;;;;;;;;;;-0.90;99.90;;;;;;5057902;28;20003;-79
2023/01/19 09:53:27;;;;;;;;;;;-0.80;99.90;;;;;;5058307;28;19920;-79
2023/01/19 09:55:52;;;;;;;;;;;-0.70;99.90;;;;;;5039900;28;20435;-79
2023/01/19 09:58:19;;;;;;;;;;;-0.50;99.90;;;;;;5057986;28;19916;-79
2023/01/19 10:00:48;;;;;;;;;;;-0.40;99.90;;;;;;5040196;28;19966;-79
2023/01/19 10:03:15;;;;;;;;;;;-0.30;99.90;;;;;;5040098;28;19909;-79
2023/01/19 10:05:47;;;;;;;;;;;-0.20;99.90;;;;;;5057773;28;19913;-79
2023/01/19 10:08:19;;;;;;;;;;;-0.20;99.90;;;;;;5058322;28;19996;-79
2023/01/19 10:10:47;;;;;;;;;;;-0.10;99.90;;;;;;5057839;28;19915;-80
2023/01/19 10:13:12;;;;;;;;;;;0.00;99.90;;;;;;5057862;28;20015;-79
2023/01/19 10:15:45;;;;;;;;;;;0.10;99.90;;;;;;5058016;28;19940;-79
2023/01/19 10:18:12;;;;;;;;;;;0.10;99.90;;;;;;5057471;28;20026;-79
2023/01/19 10:20:40;;;;;;;;;;;0.10;99.90;;;;;;5057611;28;19909;-79
2023/01/19 10:23:17;;;;;;;;;;;0.10;99.90;;;;;;5039390;28;20285;-79
2023/01/19 10:25:44;;;;;;;;;;;0.10;99.90;;;;;;5057803;28;20335;-79
2023/01/19 10:28:10;;;;;;;;;;;0.20;99.90;;;;;;5039623;28;19913;-79
2023/01/19 10:30:36;;;;;;;;;;;0.20;99.90;;;;;;5039171;28;19912;-79
2023/01/19 10:33:02;;;;;;;;;;;0.30;99.90;;;;;;5057735;28;20000;-79
2023/01/19 10:35:28;;;;;;;;;;;0.30;99.90;;;;;;5057381;28;19913;-79
2023/01/19 10:37:59;;;;;;;;;;;0.40;99.90;;;;;;5057744;28;20360;-79
2023/01/19 10:40:28;;;;;;;;;;;0.40;99.90;;;;;;5057269;28;20395;-79
2023/01/19 10:42:55;;;;;;;;;;;0.30;99.90;;;;;;5056982;28;19916;-79
2023/01/19 10:45:22;;;;;;;;;;;0.40;99.90;;;;;;5039266;28;20327;-79
2023/01/19 10:47:48;;;;;;;;;;;0.40;99.90;;;;;;5057484;28;19995;-79
2023/01/19 10:50:23;;;;;;;;;;;0.40;99.90;;;;;;5056998;28;20006;-79
2023/01/19 10:52:49;;;;;;;;;;;0.40;99.90;;;;;;5056989;28;19991;-79
2023/01/19 10:55:36;;;;;;;;;;;0.40;99.90;;;;;;5057045;28;19920;-80
2023/01/19 10:58:02;;;;;;;;;;;0.50;99.90;;;;;;5057037;28;20011;-79
2023/01/19 11:00:40;;;;;;;;;;;0.50;99.90;;;;;;5038895;28;20441;-79
2023/01/19 11:03:21;;;;;;;;;;;0.50;99.90;;;;;;5057355;28;20412;-80
2023/01/19 11:05:47;;;;;;;;;;;0.50;99.90;;;;;;5057018;28;19916;-80
2023/01/19 11:08:26;;;;;;;;;;;0.60;99.90;;;;;;5056941;28;19909;-79
2023/01/19 11:10:54;;;;;;;;;;;0.60;99.90;;;;;;5039474;28;19909;-80
2023/01/19 11:13:20;;;;;;;;;;;0.70;99.90;;;;;;5056718;28;19909;-80
2023/01/19 11:15:51;;;;;;;;;;;0.70;99.90;;;;;;5056890;28;19913;-79
2023/01/19 11:18:27;;;;;;;;;;;0.80;99.90;;;;;;5057082;28;20284;-80
2023/01/19 11:20:54;;;;;;;;;;;0.80;99.90;;;;;;5056972;28;19913;-80
2023/01/19 11:23:27;;;;;;;;;;;0.90;99.90;;;;;;5057328;28;19952;-80
2023/01/19 11:25:54;;;;;;;;;;;0.90;99.90;;;;;;5057583;28;19913;-79
2023/01/19 11:28:36;;;;;;;;;;;0.90;99.90;;;;;;5057384;28;19909;-80
2023/01/19 11:31:02;;;;;;;;;;;0.90;99.90;;;;;;5039752;28;19912;-80
2023/01/19 11:33:35;;;;;;;;;;;0.90;99.90;;;;;;5075071;28;19964;-80
2023/01/19 11:36:02;;;;;;;;;;;0.90;99.90;;;;;;5060283;28;20066;-80
2023/01/19 11:38:28;;;;;;;;;;;0.90;99.90;;;;;;5040439;28;19932;-80
2023/01/19 11:40:55;;;;;;;;;;;0.90;99.90;;;;;;5057784;28;19909;-80
2023/01/19 11:43:22;;;;;;;;;;;1.00;99.90;;;;;;5057891;28;19913;-80
2023/01/19 11:45:48;;;;;;;;;;;1.00;99.90;;;;;;5058038;28;19909;-80
2023/01/19 11:48:26;;;;;;;;;;;1.00;99.90;;;;;;5057582;28;19962;-80
2023/01/19 11:50:52;;;;;;;;;;;1.00;99.90;;;;;;5056819;28;20322;-80
2023/01/19 11:53:23;;;;;;;;;;;1.00;99.90;;;;;;5057029;28;19908;-80
2023/01/19 11:55:55;;;;;;;;;;;1.00;99.90;;;;;;5056930;28;19912;-80
2023/01/19 11:58:22;;;;;;;;;;;1.00;99.90;;;;;;5056985;28;19916;-80
2023/01/19 12:00:53;;;;;;;;;;;0.90;99.90;;;;;;5056236;28;19924;-80
2023/01/19 12:03:30;;;;;;;;;;;0.90;99.90;;;;;;5056375;28;19916;-80
2023/01/19 12:05:58;;;;;;;;;;;0.80;99.90;;;;;;5038486;28;20361;-80
2023/01/19 12:08:28;;;;;;;;;;;0.80;99.90;;;;;;5038905;28;19934;-80
2023/01/19 12:10:56;;;;;;;;;;;0.90;99.90;;;;;;5056178;28;20003;-80
2023/01/19 12:13:25;;;;;;;;;;;0.90;99.90;;;;;;5057788;28;19920;-80
2023/01/19 12:15:53;;;;;;;;;;;0.80;99.90;;;;;;5039449;28;19978;-80
2023/01/19 12:18:24;;;;;;;;;;;0.90;99.90;;;;;;5056612;28;19915;-80
2023/01/19 12:20:51;;;;;;;;;;;0.80;99.90;;;;;;5055997;28;19963;-80
2023/01/19 12:23:39;;;;;;;;;;;0.80;99.90;;;;;;5056495;28;19959;-81
2023/01/19 12:26:23;;;;;;;;;;;0.80;99.90;;;;;;5029705;28;19915;-80
2023/01/19 12:28:50;;;;;;;;;;;0.90;99.90;;;;;;5056769;28;20283;-80
2023/01/19 12:31:17;;;;;;;;;;;0.90;99.90;;;;;;5056594;28;20381;-80
2023/01/19 12:33:43;;;;;;;;;;;1.00;99.90;;;;;;5038857;28;19968;-80
2023/01/19 12:36:11;;;;;;;;;;;1.10;99.90;;;;;;5056778;28;19971;-80
2023/01/19 12:38:36;;;;;;;;;;;1.20;99.90;;;;;;5039264;28;20007;-80
2023/01/19 12:41:18;;;;;;;;;;;1.30;99.90;;;;;;5038194;28;20360;-80
2023/01/19 12:43:44;;;;;;;;;;;1.30;99.90;;;;;;5056649;28;19908;-80
2023/01/19 12:46:26;;;;;;;;;;;1.30;99.90;;;;;;5055916;28;19959;-80
2023/01/19 12:48:51;;;;;;;;;;;1.40;99.90;;;;;;5038315;28;19942;-80
2023/01/19 12:51:25;;;;;;;;;;;1.50;99.90;;;;;;5055761;28;19995;-81
2023/01/19 12:53:55;;;;;;;;;;;1.50;99.90;;;;;;5056160;28;19962;-81
2023/01/19 12:56:31;;;;;;;;;;;1.60;99.90;;;;;;5037964;28;19909;-80
2023/01/19 12:58:57;;;;;;;;;;;1.60;99.90;;;;;;5056126;28;19959;-80
2023/01/19 13:01:23;;;;;;;;;;;1.60;99.90;;;;;;5056065;28;19928;-80
2023/01/19 13:04:08;;;;;;;;;;;1.60;99.90;;;;;;5037870;28;20369;-80
2023/01/19 13:06:46;;;;;;;;;;;1.60;99.90;;;;;;5055638;28;19954;-80
2023/01/19 13:09:34;;;;;;;;;;;1.60;99.90;;;;;;5055908;28;20254;-80
2023/01/19 13:12:18;;;;;;;;;;;1.70;99.90;;;;;;5055278;28;20000;-80
2023/01/19 13:14:44;;;;;;;;;;;1.60;99.90;;;;;;5037546;28;19909;-80
2023/01/19 13:17:28;;;;;;;;;;;1.50;99.90;;;;;;5037469;28;19919;-80
2023/01/19 13:19:58;;;;;;;;;;;1.50;99.90;;;;;;5054973;28;19916;-79
2023/01/19 13:22:42;;;;;;;;;;;1.40;99.90;;;;;;5055557;28;20417;-80
2023/01/19 13:25:12;;;;;;;;;;;1.20;99.90;;;;;;5037020;28;19995;-80
2023/01/19 13:27:39;;;;;;;;;;;1.10;99.90;;;;;;5055086;28;19909;-80
2023/01/19 13:30:14;;;;;;;;;;;1.00;99.90;;;;;;5055127;28;20024;-81
2023/01/19 13:32:41;;;;;;;;;;;0.90;99.90;;;;;;5054920;28;19955;-80
2023/01/19 13:35:12;;;;;;;;;;;0.70;99.90;;;;;;5055269;28;19995;-80
2023/01/19 13:37:38;;;;;;;;;;;0.60;99.90;;;;;;5054971;28;20345;-81
2023/01/19 13:40:04;;;;;;;;;;;0.50;99.90;;;;;;5055263;28;19920;-81
2023/01/19 13:42:37;;;;;;;;;;;0.40;99.90;;;;;;5041142;28;19916;-81
2023/01/19 13:45:22;;;;;;;;;;;0.40;99.90;;;;;;5059732;28;20003;-81
2023/01/19 13:47:49;;;;;;;;;;;0.40;99.90;;;;;;5042284;28;19919;-81
2023/01/19 13:50:22;;;;;;;;;;;0.40;99.90;;;;;;5075284;28;19968;-79
2023/01/19 13:52:50;;;;;;;;;;;0.50;99.90;;;;;;5065207;28;19909;-81
2023/01/19 13:55:16;;;;;;;;;;;0.50;99.90;;;;;;5042028;28;19952;-80
2023/01/19 13:57:43;;;;;;;;;;;0.50;99.90;;;;;;5040227;28;19920;-80
2023/01/19 14:00:15;;;;;;;;;;;0.50;99.90;;;;;;5057797;28;19990;-81
2023/01/19 14:02:49;;;;;;;;;;;0.60;99.90;;;;;;5057349;28;19908;-80
2023/01/19 14:05:20;;;;;;;;;;;0.60;99.90;;;;;;5057139;28;20275;-81
2023/01/19 14:07:45;;;;;;;;;;;0.60;99.90;;;;;;5041204;28;19943;-81
2023/01/19 14:10:13;;;;;;;;;;;0.50;99.90;;;;;;5024696;28;20368;-81
2023/01/19 14:12:39;;;;;;;;;;;0.50;99.90;;;;;;5058932;28;19908;-81
2023/01/19 14:15:10;;;;;;;;;;;0.50;99.90;;;;;;5058659;28;19991;-77
2023/01/19 14:17:35;;;;;;;;;;;0.50;99.90;;;;;;5059491;28;19996;-77
2023/01/19 14:20:01;;;;;;;;;;;0.40;99.90;;;;;;5058560;28;19967;-77
2023/01/19 14:22:37;;;;;;;;;;;0.40;99.90;;;;;;5041063;28;20304;-77
2023/01/19 14:25:19;;;;;;;;;;;0.40;99.90;;;;;;5040727;28;19999;-77
2023/01/19 14:27:45;;;;;;;;;;;0.40;99.90;;;;;;5059427;28;19975;-77
2023/01/19 14:30:18;;;;;;;;;;;0.30;99.90;;;;;;5040907;28;19921;-77
2023/01/19 14:32:45;;;;;;;;;;;0.30;99.90;;;;;;5059351;28;19916;-77
2023/01/19 14:35:12;;;;;;;;;;;0.30;99.90;;;;;;5058655;28;19916;-77
2023/01/19 14:37:45;;;;;;;;;;;0.20;99.90;;;;;;5041311;28;20315;-77